Wan Hai 273 — 9V7586 — position and weather

sailwx.info

Track history (hours):
 
Tides and Currents Weather Stations Pressure Air Temp Water Temp Dewpoint Dewpoint Depression Visibility Wind Speed Wind Dir Waves Ship Positions

Wan Hai 273

Last reported at 2018-Apr-20 06:58 UTC. Time now 2018-Apr-21 13:36 UTC.
Position N 33°05' E 127°56'.

Length 172 m; draft 9.8 m.

Type: Cargo ship. MMSI: 566406000.

Date/timePositionNaut miles runAvg speedWind from/ knotsBaromVisibWave heightAir tempDewpointWater temp
2018-Apr-20 06:58N 33°05' E 127°56'2218.5
2018-Apr-20 05:45N 33°24' E 128°10'1818.1
2018-Apr-20 04:45N 33°40' E 128°20'518.0
2018-Apr-20 04:30N 33°44' E 128°23'917.9
2018-Apr-20 04:00N 33°52' E 128°28'918.0
2018-Apr-20 03:30N 33°60' E 128°33'918.0
2018-Apr-20 03:01N 34°07' E 128°39'2018.1
2018-Apr-20 01:55N 34°25' E 128°50'1918.1
2018-Apr-20 00:51N 34°42' E 128°59'2118.3
2018-Apr-19 23:41N 35°02' E 129°08'213.0
2018-Apr-19 23:30N 35°05' E 129°07'2 5.0
2018-Apr-19 23:01N 35°06' E 129°04'0 0.0
2018-Apr-19 22:30N 35°06' E 129°04'0 0.0
2018-Apr-19 22:00N 35°06' E 129°04'0 0.0
2018-Apr-19 21:30N 35°06' E 129°04'0 0.0
2018-Apr-19 21:00N 35°06' E 129°04'0 0.0
2018-Apr-19 20:30N 35°06' E 129°04'0 0.0
2018-Apr-19 20:00N 35°06' E 129°04'0 0.0
2018-Apr-19 19:30N 35°06' E 129°04'0 0.0
2018-Apr-19 19:00N 35°06' E 129°04'0 0.0
2018-Apr-19 18:30N 35°06' E 129°04'0 0.0
2018-Apr-19 18:00N 35°06' E 129°04'0 0.0
2018-Apr-19 17:30N 35°06' E 129°04'0 0.0
2018-Apr-19 17:00N 35°06' E 129°04'0 0.0
2018-Apr-19 16:30N 35°06' E 129°04'0 0.0
2018-Apr-19 16:00N 35°06' E 129°04'0 0.0
2018-Apr-19 15:30N 35°06' E 129°04'0 0.0
2018-Apr-19 15:00N 35°06' E 129°04'0 0.0
2018-Apr-19 14:30N 35°06' E 129°04'0 0.0
2018-Apr-19 14:00N 35°06' E 129°04'2 4.6
2018-Apr-19 13:31N 35°05' E 129°07'3 5.6
2018-Apr-19 13:00N 35°04' E 129°10'3 5.7
2018-Apr-19 12:30N 35°06' E 129°13'5 9.7
2018-Apr-19 12:00N 35°10' E 129°17'612.8
2018-Apr-19 11:30N 35°15' E 129°21'612.6
2018-Apr-19 11:00N 35°20' E 129°26'611.8
2018-Apr-19 10:30N 35°26' E 129°24'3 0.8
2018-Apr-19 07:19N 35°26' E 129°21'0 0.0
2018-Apr-19 06:13N 35°26' E 129°21'0 0.1
2018-Apr-19 05:55N 35°26' E 129°21'0 0.2
2018-Apr-19 05:27N 35°26' E 129°21'2 3.9
2018-Apr-19 04:59N 35°27' E 129°24'5 9.8
2018-Apr-19 04:30N 35°23' E 129°26'1814.6
2018-Apr-19 03:14N 35°09' E 129°41'418.5
2018-Apr-19 03:00N 35°05' E 129°44'918.3
2018-Apr-19 02:30N 34°58' E 129°51'1018.9
2018-Apr-19 02:00N 34°51' E 129°59'919.0
2018-Apr-19 01:30N 34°44' E 130°07'1818.7
2018-Apr-19 00:32N 34°30' E 130°21'118.6
2018-Apr-19 00:29N 34°29' E 130°22'918.8
2018-Apr-19 00:00N 34°23' E 130°29'918.9
2018-Apr-18 23:31N 34°15' E 130°36'918.9
2018-Apr-18 23:00N 34°08' E 130°43'918.5
2018-Apr-18 22:30N 34°01' E 130°51'5 9.9
2018-Apr-18 22:00N 33°56' E 130°52'3 6.3
2018-Apr-18 21:30N 33°55' E 130°56'510.5
2018-Apr-18 21:00N 33°58' E 131°01'612.8
2018-Apr-18 20:30N 33°55' E 131°07'713.2
2018-Apr-18 20:01N 33°52' E 131°14'917.8
2018-Apr-18 19:30N 33°50' E 131°25'918.2
2018-Apr-18 19:01N 33°48' E 131°35'816.8
2018-Apr-18 18:31N 33°45' E 131°45'917.3
2018-Apr-18 18:00N 33°37' E 131°49'917.1
2018-Apr-18 17:30N 33°30' E 131°54'917.2
2018-Apr-18 17:00N 33°22' E 131°58'1016.4
2018-Apr-18 16:23N 33°14' E 132°05'13113.9
2018-Apr-18 06:58N 33°36' E 134°40'918.1
2018-Apr-18 06:30N 33°43' E 134°46'918.1
2018-Apr-18 06:00N 33°51' E 134°52'918.4
2018-Apr-18 05:30N 33°60' E 134°54'918.4
2018-Apr-18 05:00N 34°09' E 134°56'816.2
2018-Apr-18 04:30N 34°17' E 134°59'918.9
2018-Apr-18 04:00N 34°25' E 135°04'1019.8
2018-Apr-18 03:31N 34°32' E 135°13'917.7
2018-Apr-18 03:00N 34°37' E 135°21'4 7.7
2018-Apr-18 02:30N 34°39' E 135°26'0 0.2
2018-Apr-18 02:00N 34°39' E 135°26'0 0.0
2018-Apr-18 01:30N 34°39' E 135°26'0 0.0
2018-Apr-18 01:00N 34°39' E 135°26'0 0.0
2018-Apr-18 00:30N 34°39' E 135°26'0 0.0
2018-Apr-18 00:00N 34°39' E 135°26'0 0.0
2018-Apr-17 23:27N 34°39' E 135°26'0 0.0
2018-Apr-17 23:00N 34°39' E 135°26'0 0.0
2018-Apr-17 22:30N 34°39' E 135°26'0 0.0
2018-Apr-17 22:00N 34°39' E 135°26'0 0.0
2018-Apr-17 21:30N 34°39' E 135°26'0 0.0
2018-Apr-17 21:00N 34°39' E 135°26'0 0.0
2018-Apr-17 20:30N 34°39' E 135°26'0 0.0
2018-Apr-17 20:00N 34°39' E 135°26'0 0.0
2018-Apr-17 19:30N 34°39' E 135°26'0 0.0
2018-Apr-17 19:00N 34°39' E 135°26'0 0.0
2018-Apr-17 18:30N 34°39' E 135°26'0 0.0
2018-Apr-17 18:00N 34°39' E 135°26'0 0.0
2018-Apr-17 17:30N 34°39' E 135°26'0 0.0
2018-Apr-17 17:00N 34°39' E 135°26'0 0.0
2018-Apr-17 16:30N 34°39' E 135°26'0 0.0
2018-Apr-17 16:00N 34°39' E 135°26'0 0.0
2018-Apr-17 15:27N 34°39' E 135°26'0 0.0
2018-Apr-17 15:00N 34°39' E 135°26'0 0.0
2018-Apr-17 14:30N 34°39' E 135°26'0 0.0
2018-Apr-17 14:00N 34°39' E 135°26'0 0.0
2018-Apr-17 13:30N 34°39' E 135°26'0 0.0
2018-Apr-17 13:00N 34°39' E 135°26'0 0.0
2018-Apr-17 12:30N 34°39' E 135°26'0 0.0
2018-Apr-17 12:00N 34°39' E 135°26'0 0.0
2018-Apr-17 11:30N 34°39' E 135°26'0 0.0
2018-Apr-17 11:00N 34°39' E 135°26'0 0.0
2018-Apr-17 10:27N 34°39' E 135°26'0 0.0
2018-Apr-17 09:57N 34°39' E 135°26'0 0.0
2018-Apr-17 09:30N 34°39' E 135°26'0 0.0
2018-Apr-17 09:00N 34°39' E 135°26'0 0.0
2018-Apr-17 08:30N 34°39' E 135°26'1 1.2
2018-Apr-17 08:00N 34°39' E 135°25'510.0
2018-Apr-17 07:30N 34°36' E 135°20'611.5
2018-Apr-17 07:01N 34°40' E 135°15'1 1.4
2018-Apr-17 06:29N 34°41' E 135°15'0 0.0
2018-Apr-17 05:59N 34°41' E 135°15'0 0.0
2018-Apr-17 05:29N 34°41' E 135°15'0 0.0
2018-Apr-17 04:59N 34°41' E 135°15'0 0.0
2018-Apr-17 04:29N 34°41' E 135°15'0 0.0
2018-Apr-17 03:59N 34°41' E 135°15'0 0.0
2018-Apr-17 03:29N 34°41' E 135°15'0 0.0
2018-Apr-17 02:59N 34°41' E 135°15'0 0.0
2018-Apr-17 02:29N 34°41' E 135°15'0 0.0
2018-Apr-17 01:59N 34°41' E 135°15'0 0.0
2018-Apr-17 01:29N 34°41' E 135°15'0 0.0
2018-Apr-17 00:59N 34°41' E 135°15'0 0.0
2018-Apr-17 00:29N 34°41' E 135°15'0 0.0
2018-Apr-16 23:59N 34°41' E 135°15'0 0.0
2018-Apr-16 23:29N 34°41' E 135°15'0 0.0
2018-Apr-16 22:59N 34°41' E 135°15'0 0.8
2018-Apr-16 22:30N 34°41' E 135°15'3 6.0
2018-Apr-16 22:00N 34°38' E 135°17'1 2.0
2018-Apr-16 21:30N 34°39' E 135°18'0 0.0
2018-Apr-16 21:00N 34°39' E 135°18'0 0.0
2018-Apr-16 20:27N 34°39' E 135°18'0 0.0
2018-Apr-16 20:00N 34°39' E 135°18'0 0.0
2018-Apr-16 19:30N 34°39' E 135°18'0 0.0
2018-Apr-16 19:00N 34°39' E 135°18'0 0.1
2018-Apr-16 18:30N 34°39' E 135°18'0 0.0
2018-Apr-16 18:00N 34°39' E 135°18'0 0.0
2018-Apr-16 17:30N 34°39' E 135°18'0 0.1
2018-Apr-16 17:00N 34°39' E 135°18'0 0.1
2018-Apr-16 16:30N 34°39' E 135°18'4 7.6
2018-Apr-16 16:00N 34°36' E 135°15'611.1
2018-Apr-16 15:30N 34°35' E 135°08'613.0
2018-Apr-16 15:00N 34°37' E 135°01'817.0
2018-Apr-16 14:31N 34°34' E 134°51'917.3
2018-Apr-16 14:00N 34°30' E 134°42'918.0
2018-Apr-16 13:31N 34°27' E 134°32'918.0
2018-Apr-16 13:01N 34°24' E 134°22'917.0
2018-Apr-16 12:29N 34°25' E 134°11'814.2
2018-Apr-16 11:54N 34°25' E 134°01'18 1.1
2018-Apr-15 18:49N 34°18' E 133°41'910.7
2018-Apr-15 17:57N 34°16' E 133°30'3611.3
2018-Apr-15 14:47N 34°04' E 132°49'414.4
2018-Apr-15 14:30N 34°01' E 132°46'815.2
2018-Apr-15 14:00N 33°55' E 132°40'714.9
2018-Apr-15 13:30N 33°50' E 132°33'814.1
2018-Apr-15 12:57N 33°46' E 132°25'1515.6
2018-Apr-15 11:58N 33°41' E 132°08'715.8
2018-Apr-15 11:30N 33°43' E 131°59'815.4
2018-Apr-15 11:00N 33°44' E 131°50'814.9
2018-Apr-15 10:30N 33°46' E 131°41'714.7
2018-Apr-15 10:00N 33°47' E 131°33'715.0
2018-Apr-15 09:30N 33°49' E 131°24'815.3
2018-Apr-15 09:00N 33°50' E 131°15'714.9
2018-Apr-15 08:30N 33°54' E 131°07'612.6
2018-Apr-15 08:00N 33°58' E 131°01'510.7
2018-Apr-15 07:30N 33°55' E 130°56'5 9.0
2018-Apr-15 07:00N 33°59' E 130°53'4 8.9
2018-Apr-15 06:30N 34°02' E 130°49'4 8.9
2018-Apr-15 06:00N 34°03' E 130°43'4 7.0
2018-Apr-15 05:30N 34°02' E 130°39'4 8.3
2018-Apr-15 05:01N 34°01' E 130°35'917.4
2018-Apr-15 04:31N 33°58' E 130°25'816.3
2018-Apr-15 04:01N 33°51' E 130°19'916.7
2018-Apr-15 03:30N 33°43' E 130°16'713.9
2018-Apr-15 03:01N 33°38' E 130°21'3 6.2
2018-Apr-15 02:30N 33°39' E 130°24'0 0.0
2018-Apr-15 02:00N 33°39' E 130°24'0 0.0
2018-Apr-15 01:26N 33°39' E 130°24'0 0.0
2018-Apr-15 00:59N 33°39' E 130°24'0 0.0
2018-Apr-15 00:26N 33°39' E 130°24'0 0.0
2018-Apr-14 23:56N 33°39' E 130°24'0 0.0
2018-Apr-14 23:29N 33°39' E 130°24'0 0.0
2018-Apr-14 22:57N 33°39' E 130°24'0 0.1
2018-Apr-14 22:27N 33°39' E 130°24'0 0.1
2018-Apr-14 21:56N 33°39' E 130°24'0 0.0
2018-Apr-14 21:29N 33°39' E 130°24'0 0.0
2018-Apr-14 20:56N 33°39' E 130°24'0 0.0
2018-Apr-14 20:26N 33°39' E 130°24'0 0.0
2018-Apr-14 19:59N 33°39' E 130°24'0 0.0
2018-Apr-14 19:26N 33°39' E 130°24'0 0.0
2018-Apr-14 18:59N 33°39' E 130°24'0 0.0
2018-Apr-14 18:30N 33°39' E 130°24'0 0.0
2018-Apr-14 17:59N 33°39' E 130°24'0 0.0
2018-Apr-14 17:26N 33°39' E 130°24'0 0.0
2018-Apr-14 16:57N 33°39' E 130°24'0 0.0
2018-Apr-14 16:26N 33°39' E 130°24'0 0.0
2018-Apr-14 15:57N 33°39' E 130°24'0 0.0
2018-Apr-14 15:26N 33°39' E 130°24'0 0.0
2018-Apr-14 14:59N 33°39' E 130°24'0 0.0
2018-Apr-14 14:29N 33°39' E 130°24'0 0.0
2018-Apr-14 13:59N 33°39' E 130°24'0 0.0
2018-Apr-14 13:26N 33°39' E 130°24'0 0.0
2018-Apr-14 12:56N 33°39' E 130°24'0 0.0
2018-Apr-14 12:29N 33°39' E 130°24'0 0.0
2018-Apr-14 11:56N 33°39' E 130°24'0 0.0
2018-Apr-14 11:29N 33°39' E 130°24'0 0.0
2018-Apr-14 10:56N 33°39' E 130°24'0 0.0
2018-Apr-14 10:26N 33°39' E 130°24'0 0.0
2018-Apr-14 09:59N 33°39' E 130°24'0 0.0
2018-Apr-14 09:26N 33°39' E 130°24'0 0.0
2018-Apr-14 09:00N 33°39' E 130°24'0 0.0
2018-Apr-14 08:29N 33°39' E 130°24'0 0.0
2018-Apr-14 07:56N 33°39' E 130°24'0 0.0
2018-Apr-14 07:30N 33°39' E 130°24'0 0.0
2018-Apr-14 06:56N 33°39' E 130°24'0 0.0
2018-Apr-14 06:30N 33°39' E 130°24'0 0.0
2018-Apr-14 05:56N 33°39' E 130°24'0 0.0
2018-Apr-14 05:29N 33°39' E 130°24'0 0.0
2018-Apr-14 04:56N 33°39' E 130°24'0 0.0
2018-Apr-14 04:26N 33°39' E 130°24'0 0.0
2018-Apr-14 03:59N 33°39' E 130°24'0 0.0
2018-Apr-14 03:27N 33°39' E 130°24'3 6.4
2018-Apr-14 03:00N 33°38' E 130°21'5 9.3
2018-Apr-14 02:29N 33°40' E 130°16'5 9.6
2018-Apr-14 02:01N 33°44' E 130°14'611.5
2018-Apr-14 01:31N 33°47' E 130°08'816.4
2018-Apr-14 01:01N 33°51' E 129°59'917.0
2018-Apr-14 00:30N 33°54' E 129°49'66118.5
2018-Apr-12 12:49N 25°34' E 121°31'618.8
2018-Apr-12 12:30N 25°30' E 121°27'918.2
2018-Apr-12 12:00N 25°23' E 121°21'917.2
2018-Apr-12 11:30N 25°15' E 121°16'816.3
2018-Apr-12 11:00N 25°09' E 121°22'2 2.9
2018-Apr-12 10:29N 25°10' E 121°23'0 0.0
2018-Apr-12 09:44N 25°10' E 121°23'0 0.0
2018-Apr-12 09:20N 25°10' E 121°23'0 0.2
2018-Apr-12 08:59N 25°10' E 121°23'0 0.0
2018-Apr-12 08:29N 25°10' E 121°23'0 0.0
2018-Apr-12 07:50N 25°10' E 121°23'0 0.0
2018-Apr-12 07:29N 25°10' E 121°23'0 0.1
2018-Apr-12 06:40N 25°10' E 121°23'0 0.0
2018-Apr-12 06:25N 25°10' E 121°23'0 0.1
2018-Apr-12 05:52N 25°10' E 121°23'0 0.0
2018-Apr-12 05:29N 25°10' E 121°23'0 0.1
2018-Apr-12 04:53N 25°10' E 121°23'0 0.1
2018-Apr-12 04:30N 25°10' E 121°23'0 0.1
2018-Apr-12 04:00N 25°10' E 121°23'0 0.0
2018-Apr-12 03:26N 25°10' E 121°23'0 0.0
2018-Apr-12 02:59N 25°10' E 121°23'0 0.1
2018-Apr-12 02:30N 25°10' E 121°23'0 0.0
2018-Apr-12 02:00N 25°10' E 121°23'0 0.1
2018-Apr-12 01:20N 25°10' E 121°23'0 0.0
2018-Apr-11 23:30N 25°10' E 121°23'0 0.1
2018-Apr-11 22:54N 25°10' E 121°23'2 3.9
2018-Apr-11 22:30N 25°09' E 121°22'5 9.2
2018-Apr-11 22:00N 25°12' E 121°18'4 7.2
2018-Apr-11 21:30N 25°14' E 121°15'2 4.5
2018-Apr-11 21:00N 25°15' E 121°13'611.1
2018-Apr-11 20:30N 25°13' E 121°07'816.9
2018-Apr-11 20:00N 25°08' E 120°59'106 5.8
2018-Apr-11 01:34N 23°39' E 119°56'118.7
2018-Apr-11 01:30N 23°38' E 119°56'918.9
2018-Apr-11 01:00N 23°29' E 119°55'1018.6
2018-Apr-11 00:27N 23°19' E 119°56'918.8
2018-Apr-10 23:58N 23°09' E 119°56'1018.3
2018-Apr-10 23:26N 22°60' E 119°58'918.0
2018-Apr-10 22:57N 22°52' E 120°01'817.6
2018-Apr-10 22:30N 22°45' E 120°06'917.1
2018-Apr-10 22:00N 22°39' E 120°12'611.0
2018-Apr-10 21:30N 22°36' E 120°17'2 3.9
2018-Apr-10 21:00N 22°35' E 120°18'0 0.0
2018-Apr-10 20:29N 22°35' E 120°18'0 0.0
2018-Apr-10 19:59N 22°35' E 120°18'0 0.0
2018-Apr-10 19:29N 22°35' E 120°18'0 0.0
2018-Apr-10 18:59N 22°35' E 120°18'0 0.0
2018-Apr-10 18:29N 22°35' E 120°18'0 0.0
2018-Apr-10 17:59N 22°35' E 120°18'0 0.0
2018-Apr-10 17:29N 22°35' E 120°18'0 0.0
2018-Apr-10 16:59N 22°35' E 120°18'0 0.0
2018-Apr-10 16:29N 22°35' E 120°18'0 0.0
2018-Apr-10 15:59N 22°35' E 120°18'0 0.0
2018-Apr-10 15:29N 22°35' E 120°18'0 0.0
2018-Apr-10 14:59N 22°35' E 120°18'0 0.0
2018-Apr-10 14:29N 22°35' E 120°18'0 0.0
2018-Apr-10 13:59N 22°35' E 120°18'0 0.0
2018-Apr-10 13:29N 22°35' E 120°18'0 0.0
2018-Apr-10 12:59N 22°35' E 120°18'0 0.0
2018-Apr-10 12:29N 22°35' E 120°18'0 0.0
2018-Apr-10 11:59N 22°35' E 120°18'0 0.0
2018-Apr-10 11:29N 22°35' E 120°18'0 0.0
2018-Apr-10 10:59N 22°35' E 120°18'0 0.0
2018-Apr-10 10:29N 22°35' E 120°18'0 0.0
2018-Apr-10 09:59N 22°35' E 120°18'0 0.0
2018-Apr-10 09:29N 22°35' E 120°18'0 0.0
2018-Apr-10 08:56N 22°35' E 120°18'0 0.0
2018-Apr-10 08:30N 22°35' E 120°18'2 4.4
2018-Apr-10 08:00N 22°36' E 120°17'4 7.6
2018-Apr-10 07:30N 22°37' E 120°13'1 2.6
2018-Apr-10 07:00N 22°37' E 120°12'  
Track history (hours):
 
Tides and Currents Weather Stations Pressure Air Temp Water Temp Dewpoint Dewpoint Depression Visibility Wind Speed Wind Dir Waves Ship Positions

Wan Hai 273

Last reported at 2018-Apr-20 06:58 UTC. Time now 2018-Apr-21 13:36 UTC.
Position N 33°05' E 127°56'.

Length 172 m; draft 9.8 m.

Type: Cargo ship. MMSI: 566406000.

Date/timePositionNaut miles runAvg speedWind from/ knotsBaromVisibWave heightAir tempDewpointWater temp
2018-Apr-20 06:58N 33°05' E 127°56'2218.5
2018-Apr-20 05:45N 33°24' E 128°10'1818.1
2018-Apr-20 04:45N 33°40' E 128°20'518.0
2018-Apr-20 04:30N 33°44' E 128°23'917.9
2018-Apr-20 04:00N 33°52' E 128°28'918.0
2018-Apr-20 03:30N 33°60' E 128°33'918.0
2018-Apr-20 03:01N 34°07' E 128°39'2018.1
2018-Apr-20 01:55N 34°25' E 128°50'1918.1
2018-Apr-20 00:51N 34°42' E 128°59'2118.3
2018-Apr-19 23:41N 35°02' E 129°08'213.0
2018-Apr-19 23:30N 35°05' E 129°07'2 5.0
2018-Apr-19 23:01N 35°06' E 129°04'0 0.0
2018-Apr-19 22:30N 35°06' E 129°04'0 0.0
2018-Apr-19 22:00N 35°06' E 129°04'0 0.0
2018-Apr-19 21:30N 35°06' E 129°04'0 0.0
2018-Apr-19 21:00N 35°06' E 129°04'0 0.0
2018-Apr-19 20:30N 35°06' E 129°04'0 0.0
2018-Apr-19 20:00N 35°06' E 129°04'0 0.0
2018-Apr-19 19:30N 35°06' E 129°04'0 0.0
2018-Apr-19 19:00N 35°06' E 129°04'0 0.0
2018-Apr-19 18:30N 35°06' E 129°04'0 0.0
2018-Apr-19 18:00N 35°06' E 129°04'0 0.0
2018-Apr-19 17:30N 35°06' E 129°04'0 0.0
2018-Apr-19 17:00N 35°06' E 129°04'0 0.0
2018-Apr-19 16:30N 35°06' E 129°04'0 0.0
2018-Apr-19 16:00N 35°06' E 129°04'0 0.0
2018-Apr-19 15:30N 35°06' E 129°04'0 0.0
2018-Apr-19 15:00N 35°06' E 129°04'0 0.0
2018-Apr-19 14:30N 35°06' E 129°04'0 0.0
2018-Apr-19 14:00N 35°06' E 129°04'2 4.6
2018-Apr-19 13:31N 35°05' E 129°07'3 5.6
2018-Apr-19 13:00N 35°04' E 129°10'3 5.7
2018-Apr-19 12:30N 35°06' E 129°13'5 9.7
2018-Apr-19 12:00N 35°10' E 129°17'612.8
2018-Apr-19 11:30N 35°15' E 129°21'612.6
2018-Apr-19 11:00N 35°20' E 129°26'611.8
2018-Apr-19 10:30N 35°26' E 129°24'3 0.8
2018-Apr-19 07:19N 35°26' E 129°21'0 0.0
2018-Apr-19 06:13N 35°26' E 129°21'0 0.1
2018-Apr-19 05:55N 35°26' E 129°21'0 0.2
2018-Apr-19 05:27N 35°26' E 129°21'2 3.9
2018-Apr-19 04:59N 35°27' E 129°24'5 9.8
2018-Apr-19 04:30N 35°23' E 129°26'1814.6
2018-Apr-19 03:14N 35°09' E 129°41'418.5
2018-Apr-19 03:00N 35°05' E 129°44'918.3
2018-Apr-19 02:30N 34°58' E 129°51'1018.9
2018-Apr-19 02:00N 34°51' E 129°59'919.0
2018-Apr-19 01:30N 34°44' E 130°07'1818.7
2018-Apr-19 00:32N 34°30' E 130°21'118.6
2018-Apr-19 00:29N 34°29' E 130°22'918.8
2018-Apr-19 00:00N 34°23' E 130°29'918.9
2018-Apr-18 23:31N 34°15' E 130°36'918.9
2018-Apr-18 23:00N 34°08' E 130°43'918.5
2018-Apr-18 22:30N 34°01' E 130°51'5 9.9
2018-Apr-18 22:00N 33°56' E 130°52'3 6.3
2018-Apr-18 21:30N 33°55' E 130°56'510.5
2018-Apr-18 21:00N 33°58' E 131°01'612.8
2018-Apr-18 20:30N 33°55' E 131°07'713.2
2018-Apr-18 20:01N 33°52' E 131°14'917.8
2018-Apr-18 19:30N 33°50' E 131°25'918.2
2018-Apr-18 19:01N 33°48' E 131°35'816.8
2018-Apr-18 18:31N 33°45' E 131°45'917.3
2018-Apr-18 18:00N 33°37' E 131°49'917.1
2018-Apr-18 17:30N 33°30' E 131°54'917.2
2018-Apr-18 17:00N 33°22' E 131°58'1016.4
2018-Apr-18 16:23N 33°14' E 132°05'13113.9
2018-Apr-18 06:58N 33°36' E 134°40'918.1
2018-Apr-18 06:30N 33°43' E 134°46'918.1
2018-Apr-18 06:00N 33°51' E 134°52'918.4
2018-Apr-18 05:30N 33°60' E 134°54'918.4
2018-Apr-18 05:00N 34°09' E 134°56'816.2
2018-Apr-18 04:30N 34°17' E 134°59'918.9
2018-Apr-18 04:00N 34°25' E 135°04'1019.8
2018-Apr-18 03:31N 34°32' E 135°13'917.7
2018-Apr-18 03:00N 34°37' E 135°21'4 7.7
2018-Apr-18 02:30N 34°39' E 135°26'0 0.2
2018-Apr-18 02:00N 34°39' E 135°26'0 0.0
2018-Apr-18 01:30N 34°39' E 135°26'0 0.0
2018-Apr-18 01:00N 34°39' E 135°26'0 0.0
2018-Apr-18 00:30N 34°39' E 135°26'0 0.0
2018-Apr-18 00:00N 34°39' E 135°26'0 0.0
2018-Apr-17 23:27N 34°39' E 135°26'0 0.0
2018-Apr-17 23:00N 34°39' E 135°26'0 0.0
2018-Apr-17 22:30N 34°39' E 135°26'0 0.0
2018-Apr-17 22:00N 34°39' E 135°26'0 0.0
2018-Apr-17 21:30N 34°39' E 135°26'0 0.0
2018-Apr-17 21:00N 34°39' E 135°26'0 0.0
2018-Apr-17 20:30N 34°39' E 135°26'0 0.0
2018-Apr-17 20:00N 34°39' E 135°26'0 0.0
2018-Apr-17 19:30N 34°39' E 135°26'0 0.0
2018-Apr-17 19:00N 34°39' E 135°26'0 0.0
2018-Apr-17 18:30N 34°39' E 135°26'0 0.0
2018-Apr-17 18:00N 34°39' E 135°26'0 0.0
2018-Apr-17 17:30N 34°39' E 135°26'0 0.0
2018-Apr-17 17:00N 34°39' E 135°26'0 0.0
2018-Apr-17 16:30N 34°39' E 135°26'0 0.0
2018-Apr-17 16:00N 34°39' E 135°26'0 0.0
2018-Apr-17 15:27N 34°39' E 135°26'0 0.0
2018-Apr-17 15:00N 34°39' E 135°26'0 0.0
2018-Apr-17 14:30N 34°39' E 135°26'0 0.0
2018-Apr-17 14:00N 34°39' E 135°26'0 0.0
2018-Apr-17 13:30N 34°39' E 135°26'0 0.0
2018-Apr-17 13:00N 34°39' E 135°26'0 0.0
2018-Apr-17 12:30N 34°39' E 135°26'0 0.0
2018-Apr-17 12:00N 34°39' E 135°26'0 0.0
2018-Apr-17 11:30N 34°39' E 135°26'0 0.0
2018-Apr-17 11:00N 34°39' E 135°26'0 0.0
2018-Apr-17 10:27N 34°39' E 135°26'0 0.0
2018-Apr-17 09:57N 34°39' E 135°26'0 0.0
2018-Apr-17 09:30N 34°39' E 135°26'0 0.0
2018-Apr-17 09:00N 34°39' E 135°26'0 0.0
2018-Apr-17 08:30N 34°39' E 135°26'1 1.2
2018-Apr-17 08:00N 34°39' E 135°25'510.0
2018-Apr-17 07:30N 34°36' E 135°20'611.5
2018-Apr-17 07:01N 34°40' E 135°15'1 1.4
2018-Apr-17 06:29N 34°41' E 135°15'0 0.0
2018-Apr-17 05:59N 34°41' E 135°15'0 0.0
2018-Apr-17 05:29N 34°41' E 135°15'0 0.0
2018-Apr-17 04:59N 34°41' E 135°15'0 0.0
2018-Apr-17 04:29N 34°41' E 135°15'0 0.0
2018-Apr-17 03:59N 34°41' E 135°15'0 0.0
2018-Apr-17 03:29N 34°41' E 135°15'0 0.0
2018-Apr-17 02:59N 34°41' E 135°15'0 0.0
2018-Apr-17 02:29N 34°41' E 135°15'0 0.0
2018-Apr-17 01:59N 34°41' E 135°15'0 0.0
2018-Apr-17 01:29N 34°41' E 135°15'0 0.0
2018-Apr-17 00:59N 34°41' E 135°15'0 0.0
2018-Apr-17 00:29N 34°41' E 135°15'0 0.0
2018-Apr-16 23:59N 34°41' E 135°15'0 0.0
2018-Apr-16 23:29N 34°41' E 135°15'0 0.0
2018-Apr-16 22:59N 34°41' E 135°15'0 0.8
2018-Apr-16 22:30N 34°41' E 135°15'3 6.0
2018-Apr-16 22:00N 34°38' E 135°17'1 2.0
2018-Apr-16 21:30N 34°39' E 135°18'0 0.0
2018-Apr-16 21:00N 34°39' E 135°18'0 0.0
2018-Apr-16 20:27N 34°39' E 135°18'0 0.0
2018-Apr-16 20:00N 34°39' E 135°18'0 0.0
2018-Apr-16 19:30N 34°39' E 135°18'0 0.0
2018-Apr-16 19:00N 34°39' E 135°18'0 0.1
2018-Apr-16 18:30N 34°39' E 135°18'0 0.0
2018-Apr-16 18:00N 34°39' E 135°18'0 0.0
2018-Apr-16 17:30N 34°39' E 135°18'0 0.1
2018-Apr-16 17:00N 34°39' E 135°18'0 0.1
2018-Apr-16 16:30N 34°39' E 135°18'4 7.6
2018-Apr-16 16:00N 34°36' E 135°15'611.1
2018-Apr-16 15:30N 34°35' E 135°08'613.0
2018-Apr-16 15:00N 34°37' E 135°01'817.0
2018-Apr-16 14:31N 34°34' E 134°51'917.3
2018-Apr-16 14:00N 34°30' E 134°42'918.0
2018-Apr-16 13:31N 34°27' E 134°32'918.0
2018-Apr-16 13:01N 34°24' E 134°22'917.0
2018-Apr-16 12:29N 34°25' E 134°11'814.2
2018-Apr-16 11:54N 34°25' E 134°01'18 1.1
2018-Apr-15 18:49N 34°18' E 133°41'910.7
2018-Apr-15 17:57N 34°16' E 133°30'3611.3
2018-Apr-15 14:47N 34°04' E 132°49'414.4
2018-Apr-15 14:30N 34°01' E 132°46'815.2
2018-Apr-15 14:00N 33°55' E 132°40'714.9
2018-Apr-15 13:30N 33°50' E 132°33'814.1
2018-Apr-15 12:57N 33°46' E 132°25'1515.6
2018-Apr-15 11:58N 33°41' E 132°08'715.8
2018-Apr-15 11:30N 33°43' E 131°59'815.4
2018-Apr-15 11:00N 33°44' E 131°50'814.9
2018-Apr-15 10:30N 33°46' E 131°41'714.7
2018-Apr-15 10:00N 33°47' E 131°33'715.0
2018-Apr-15 09:30N 33°49' E 131°24'815.3
2018-Apr-15 09:00N 33°50' E 131°15'714.9
2018-Apr-15 08:30N 33°54' E 131°07'612.6
2018-Apr-15 08:00N 33°58' E 131°01'510.7
2018-Apr-15 07:30N 33°55' E 130°56'5 9.0
2018-Apr-15 07:00N 33°59' E 130°53'4 8.9
2018-Apr-15 06:30N 34°02' E 130°49'4 8.9
2018-Apr-15 06:00N 34°03' E 130°43'4 7.0
2018-Apr-15 05:30N 34°02' E 130°39'4 8.3
2018-Apr-15 05:01N 34°01' E 130°35'917.4
2018-Apr-15 04:31N 33°58' E 130°25'816.3
2018-Apr-15 04:01N 33°51' E 130°19'916.7
2018-Apr-15 03:30N 33°43' E 130°16'713.9
2018-Apr-15 03:01N 33°38' E 130°21'3 6.2
2018-Apr-15 02:30N 33°39' E 130°24'0 0.0
2018-Apr-15 02:00N 33°39' E 130°24'0 0.0
2018-Apr-15 01:26N 33°39' E 130°24'0 0.0
2018-Apr-15 00:59N 33°39' E 130°24'0 0.0
2018-Apr-15 00:26N 33°39' E 130°24'0 0.0
2018-Apr-14 23:56N 33°39' E 130°24'0 0.0
2018-Apr-14 23:29N 33°39' E 130°24'0 0.0
2018-Apr-14 22:57N 33°39' E 130°24'0 0.1
2018-Apr-14 22:27N 33°39' E 130°24'0 0.1
2018-Apr-14 21:56N 33°39' E 130°24'0 0.0
2018-Apr-14 21:29N 33°39' E 130°24'0 0.0
2018-Apr-14 20:56N 33°39' E 130°24'0 0.0
2018-Apr-14 20:26N 33°39' E 130°24'0 0.0
2018-Apr-14 19:59N 33°39' E 130°24'0 0.0
2018-Apr-14 19:26N 33°39' E 130°24'0 0.0
2018-Apr-14 18:59N 33°39' E 130°24'0 0.0
2018-Apr-14 18:30N 33°39' E 130°24'0 0.0
2018-Apr-14 17:59N 33°39' E 130°24'0 0.0
2018-Apr-14 17:26N 33°39' E 130°24'0 0.0
2018-Apr-14 16:57N 33°39' E 130°24'0 0.0
2018-Apr-14 16:26N 33°39' E 130°24'0 0.0
2018-Apr-14 15:57N 33°39' E 130°24'0 0.0
2018-Apr-14 15:26N 33°39' E 130°24'0 0.0
2018-Apr-14 14:59N 33°39' E 130°24'0 0.0
2018-Apr-14 14:29N 33°39' E 130°24'0 0.0
2018-Apr-14 13:59N 33°39' E 130°24'0 0.0
2018-Apr-14 13:26N 33°39' E 130°24'0 0.0
2018-Apr-14 12:56N 33°39' E 130°24'0 0.0
2018-Apr-14 12:29N 33°39' E 130°24'0 0.0
2018-Apr-14 11:56N 33°39' E 130°24'0 0.0
2018-Apr-14 11:29N 33°39' E 130°24'0 0.0
2018-Apr-14 10:56N 33°39' E 130°24'0 0.0
2018-Apr-14 10:26N 33°39' E 130°24'0 0.0
2018-Apr-14 09:59N 33°39' E 130°24'0 0.0
2018-Apr-14 09:26N 33°39' E 130°24'0 0.0
2018-Apr-14 09:00N 33°39' E 130°24'0 0.0
2018-Apr-14 08:29N 33°39' E 130°24'0 0.0
2018-Apr-14 07:56N 33°39' E 130°24'0 0.0
2018-Apr-14 07:30N 33°39' E 130°24'0 0.0
2018-Apr-14 06:56N 33°39' E 130°24'0 0.0
2018-Apr-14 06:30N 33°39' E 130°24'0 0.0
2018-Apr-14 05:56N 33°39' E 130°24'0 0.0
2018-Apr-14 05:29N 33°39' E 130°24'0 0.0
2018-Apr-14 04:56N 33°39' E 130°24'0 0.0
2018-Apr-14 04:26N 33°39' E 130°24'0 0.0
2018-Apr-14 03:59N 33°39' E 130°24'0 0.0
2018-Apr-14 03:27N 33°39' E 130°24'3 6.4
2018-Apr-14 03:00N 33°38' E 130°21'5 9.3
2018-Apr-14 02:29N 33°40' E 130°16'5 9.6
2018-Apr-14 02:01N 33°44' E 130°14'611.5
2018-Apr-14 01:31N 33°47' E 130°08'816.4
2018-Apr-14 01:01N 33°51' E 129°59'917.0
2018-Apr-14 00:30N 33°54' E 129°49'66118.5
2018-Apr-12 12:49N 25°34' E 121°31'618.8
2018-Apr-12 12:30N 25°30' E 121°27'918.2
2018-Apr-12 12:00N 25°23' E 121°21'917.2
2018-Apr-12 11:30N 25°15' E 121°16'816.3
2018-Apr-12 11:00N 25°09' E 121°22'2 2.9
2018-Apr-12 10:29N 25°10' E 121°23'0 0.0
2018-Apr-12 09:44N 25°10' E 121°23'0 0.0
2018-Apr-12 09:20N 25°10' E 121°23'0 0.2
2018-Apr-12 08:59N 25°10' E 121°23'0 0.0
2018-Apr-12 08:29N 25°10' E 121°23'0 0.0
2018-Apr-12 07:50N 25°10' E 121°23'0 0.0
2018-Apr-12 07:29N 25°10' E 121°23'0 0.1
2018-Apr-12 06:40N 25°10' E 121°23'0 0.0
2018-Apr-12 06:25N 25°10' E 121°23'0 0.1
2018-Apr-12 05:52N 25°10' E 121°23'0 0.0
2018-Apr-12 05:29N 25°10' E 121°23'0 0.1
2018-Apr-12 04:53N 25°10' E 121°23'0 0.1
2018-Apr-12 04:30N 25°10' E 121°23'0 0.1
2018-Apr-12 04:00N 25°10' E 121°23'0 0.0
2018-Apr-12 03:26N 25°10' E 121°23'0 0.0
2018-Apr-12 02:59N 25°10' E 121°23'0 0.1
2018-Apr-12 02:30N 25°10' E 121°23'0 0.0
2018-Apr-12 02:00N 25°10' E 121°23'0 0.1
2018-Apr-12 01:20N 25°10' E 121°23'0 0.0
2018-Apr-11 23:30N 25°10' E 121°23'0 0.1
2018-Apr-11 22:54N 25°10' E 121°23'2 3.9
2018-Apr-11 22:30N 25°09' E 121°22'5 9.2
2018-Apr-11 22:00N 25°12' E 121°18'4 7.2
2018-Apr-11 21:30N 25°14' E 121°15'2 4.5
2018-Apr-11 21:00N 25°15' E 121°13'611.1
2018-Apr-11 20:30N 25°13' E 121°07'816.9
2018-Apr-11 20:00N 25°08' E 120°59'106 5.8
2018-Apr-11 01:34N 23°39' E 119°56'118.7
2018-Apr-11 01:30N 23°38' E 119°56'918.9
2018-Apr-11 01:00N 23°29' E 119°55'1018.6
2018-Apr-11 00:27N 23°19' E 119°56'918.8
2018-Apr-10 23:58N 23°09' E 119°56'1018.3
2018-Apr-10 23:26N 22°60' E 119°58'918.0
2018-Apr-10 22:57N 22°52' E 120°01'817.6
2018-Apr-10 22:30N 22°45' E 120°06'917.1
2018-Apr-10 22:00N 22°39' E 120°12'611.0
2018-Apr-10 21:30N 22°36' E 120°17'2 3.9
2018-Apr-10 21:00N 22°35' E 120°18'0 0.0
2018-Apr-10 20:29N 22°35' E 120°18'0 0.0
2018-Apr-10 19:59N 22°35' E 120°18'0 0.0
2018-Apr-10 19:29N 22°35' E 120°18'0 0.0
2018-Apr-10 18:59N 22°35' E 120°18'0 0.0
2018-Apr-10 18:29N 22°35' E 120°18'0 0.0
2018-Apr-10 17:59N 22°35' E 120°18'0 0.0
2018-Apr-10 17:29N 22°35' E 120°18'0 0.0
2018-Apr-10 16:59N 22°35' E 120°18'0 0.0
2018-Apr-10 16:29N 22°35' E 120°18'0 0.0
2018-Apr-10 15:59N 22°35' E 120°18'0 0.0
2018-Apr-10 15:29N 22°35' E 120°18'0 0.0
2018-Apr-10 14:59N 22°35' E 120°18'0 0.0
2018-Apr-10 14:29N 22°35' E 120°18'0 0.0
2018-Apr-10 13:59N 22°35' E 120°18'0 0.0
2018-Apr-10 13:29N 22°35' E 120°18'0 0.0
2018-Apr-10 12:59N 22°35' E 120°18'0 0.0
2018-Apr-10 12:29N 22°35' E 120°18'0 0.0
2018-Apr-10 11:59N 22°35' E 120°18'0 0.0
2018-Apr-10 11:29N 22°35' E 120°18'0 0.0
2018-Apr-10 10:59N 22°35' E 120°18'0 0.0
2018-Apr-10 10:29N 22°35' E 120°18'0 0.0
2018-Apr-10 09:59N 22°35' E 120°18'0 0.0
2018-Apr-10 09:29N 22°35' E 120°18'0 0.0
2018-Apr-10 08:56N 22°35' E 120°18'0 0.0
2018-Apr-10 08:30N 22°35' E 120°18'2 4.4
2018-Apr-10 08:00N 22°36' E 120°17'4 7.6
2018-Apr-10 07:30N 22°37' E 120°13'1 2.6
2018-Apr-10 07:00N 22°37' E 120°12'  

Dump ship's entire track history